Time;durP1;ratioP1;P1;durP2;ratioP2;P2;SDS_P1;SDS_P2;PMS_P1;PMS_P2;Temp;Humidity;BMP_temperature;BMP_pressure;BME280_temperature;BME280_humidity;BME280_pressure;Samples;Min_cycle;Max_cycle;Signal;HPM_P1;HPM_P2
2023/04/21 00:02:09;;;;;;;36.50;8.23;;;;;;;14.29;68.27;100251.84;5048930;28;20033;-83
2023/04/21 00:04:35;;;;;;;32.42;7.72;;;;;;;14.24;67.86;100237.94;5048719;28;20036;-83
2023/04/21 00:07:02;;;;;;;36.13;7.43;;;;;;;14.27;68.25;100245.75;5048431;28;20025;-84
2023/04/21 00:09:28;;;;;;;42.47;7.85;;;;;;;14.24;68.20;100243.34;5048073;28;20120;-84
2023/04/21 00:11:53;;;;;;;41.92;7.60;;;;;;;14.27;68.01;100234.91;5048503;28;20459;-83
2023/04/21 00:14:19;;;;;;;24.63;6.75;;;;;;;14.28;67.81;100231.22;5048870;28;20094;-84
2023/04/21 00:16:44;;;;;;;34.45;7.43;;;;;;;14.23;68.12;100230.81;5048329;28;20025;-85
2023/04/21 00:19:12;;;;;;;42.08;6.88;;;;;;;14.19;68.17;100236.53;5048511;28;20025;-85
2023/04/21 00:21:38;;;;;;;29.08;7.60;;;;;;;14.27;68.31;100234.91;5053829;28;20098;-82
2023/04/21 00:24:03;;;;;;;50.80;9.32;;;;;;;14.20;68.06;100232.00;5068809;28;20146;-83
2023/04/21 00:26:29;;;;;;;30.00;8.18;;;;;;;14.23;68.23;100228.97;5078979;28;20039;-80
2023/04/21 00:28:54;;;;;;;22.05;6.18;;;;;;;14.18;68.15;100225.91;5089986;28;20092;-80
2023/04/21 00:31:20;;;;;;;42.45;7.85;;;;;;;14.12;67.91;100224.69;5075775;28;20206;-85
2023/04/21 00:33:46;;;;;;;29.45;8.10;;;;;;;14.12;68.30;100227.38;5067600;28;20487;-83
2023/04/21 00:36:11;;;;;;;37.75;7.78;;;;;;;14.15;68.05;100223.50;5068394;28;20055;-82
2023/04/21 00:38:37;;;;;;;35.60;8.65;;;;;;;14.16;68.15;100233.31;5068321;28;20619;-85
2023/04/21 00:41:02;;;;;;;31.05;8.55;;;;;;;14.15;68.37;100227.06;5068051;28;20024;-82
2023/04/21 00:43:28;;;;;;;42.58;7.88;;;;;;;14.13;68.48;100220.94;5068318;28;20480;-83
2023/04/21 00:45:53;;;;;;;26.33;7.15;;;;;;;14.07;68.89;100220.72;5068092;28;20381;-83
2023/04/21 00:48:18;;;;;;;32.60;8.18;;;;;;;14.11;68.60;100220.28;5068255;28;20021;-84
2023/04/21 00:50:44;;;;;;;26.40;7.82;;;;;;;14.02;68.70;100215.81;5068434;28;20076;-83
2023/04/21 00:53:10;;;;;;;35.15;8.43;;;;;;;14.08;69.08;100214.31;5068094;28;20070;-82
2023/04/21 00:55:36;;;;;;;25.75;8.38;;;;;;;14.09;68.91;100216.88;5050016;28;20159;-82
2023/04/21 00:58:02;;;;;;;42.00;9.07;;;;;;;14.10;69.22;100215.84;5068583;28;20114;-84
2023/04/21 01:00:28;;;;;;;27.10;10.02;;;;;;;14.17;69.07;100210.66;5068932;28;20167;-84
2023/04/21 01:02:54;;;;;;;40.17;8.80;;;;;;;14.09;68.92;100187.13;5068044;28;20491;-83
2023/04/21 01:05:20;;;;;;;30.05;7.90;;;;;;;14.25;69.18;100199.91;5067613;28;20507;-83
2023/04/21 01:07:46;;;;;;;31.73;7.75;;;;;;;14.22;68.90;100192.09;5032479;28;20044;-83
2023/04/21 01:10:11;;;;;;;43.35;8.70;;;;;;;14.16;69.11;100201.69;5068162;28;20029;-84
2023/04/21 01:12:44;;;;;;;46.13;8.80;;;;;;;14.23;69.15;100195.66;5068414;28;20133;-82
2023/04/21 01:15:16;;;;;;;19.80;7.32;;;;;;;14.21;68.86;100193.13;5069261;28;20119;-82
2023/04/21 01:17:42;;;;;;;29.67;7.10;;;;;;;14.15;69.09;100204.59;5074860;28;20029;-81
2023/04/21 01:20:10;;;;;;;35.17;8.15;;;;;;;14.15;69.13;100189.22;5072653;28;20032;-82
2023/04/21 01:22:37;;;;;;;42.85;8.60;;;;;;;14.11;69.33;100193.22;5086047;28;20088;-80
2023/04/21 01:25:04;;;;;;;37.28;9.32;;;;;;;14.11;69.57;100187.81;5088389;28;20084;-79
2023/04/21 01:27:29;;;;;;;30.35;8.18;;;;;;;14.12;69.52;100184.13;5083551;28;20036;-84
2023/04/21 01:29:55;;;;;;;35.63;8.98;;;;;;;14.10;69.21;100177.16;5070196;28;20483;-83
2023/04/21 01:32:23;;;;;;;34.40;7.68;;;;;;;14.17;69.13;100187.19;5076632;28;20060;-82
2023/04/21 01:34:49;;;;;;;27.10;9.00;;;;;;;14.10;68.96;100178.00;5071711;28;20033;-82
2023/04/21 01:37:18;;;;;;;29.15;7.88;;;;;;;14.03;69.07;100176.09;5068624;28;20177;-84
2023/04/21 01:39:50;;;;;;;27.88;7.28;;;;;;;13.85;69.83;100173.41;5068084;28;20031;-83
2023/04/21 01:42:17;;;;;;;29.63;9.20;;;;;;;13.81;70.02;100174.75;5067357;28;20028;-82
2023/04/21 01:44:42;;;;;;;30.40;8.57;;;;;;;13.87;70.09;100178.66;5068669;28;20536;-83
2023/04/21 01:47:08;;;;;;;39.25;8.48;;;;;;;13.85;70.18;100178.81;5071764;28;20078;-82
2023/04/21 01:49:33;;;;;;;37.90;10.25;;;;;;;13.83;70.56;100182.69;5074669;28;20060;-83
2023/04/21 01:51:59;;;;;;;31.92;10.07;;;;;;;13.85;70.56;100176.09;5075378;28;20025;-82
2023/04/21 01:54:24;;;;;;;42.13;9.00;;;;;;;13.83;70.71;100172.72;5075333;28;20039;-83
2023/04/21 01:56:49;;;;;;;39.42;11.05;;;;;;;13.87;70.68;100179.53;5076807;28;20082;-81
2023/04/21 01:59:15;;;;;;;33.58;7.65;;;;;;;13.86;70.42;100175.13;5072734;28;20032;-83
2023/04/21 02:01:41;;;;;;;39.58;8.65;;;;;;;13.84;70.58;100174.44;5071057;28;20039;-84
2023/04/21 02:04:07;;;;;;;31.27;9.65;;;;;;;13.77;70.86;100178.75;5070934;28;20027;-84
2023/04/21 02:06:32;;;;;;;22.58;9.20;;;;;;;13.78;71.13;100179.59;5071591;28;20470;-82
2023/04/21 02:08:58;;;;;;;40.53;9.65;;;;;;;13.80;71.56;100178.44;5073290;28;20025;-83
2023/04/21 02:11:24;;;;;;;55.90;9.95;;;;;;;13.80;71.42;100174.88;5072569;28;20028;-80
2023/04/21 02:13:54;;;;;;;23.88;8.23;;;;;;;13.84;71.45;100178.97;5070514;28;20111;-82
2023/04/21 02:16:24;;;;;;;42.45;9.63;;;;;;;13.81;71.50;100169.34;5070925;28;20111;-83
2023/04/21 02:18:53;;;;;;;33.70;9.00;;;;;;;13.84;70.87;100169.03;5072126;28;20115;-79
2023/04/21 02:21:22;;;;;;;23.13;8.88;;;;;;;13.79;71.23;100163.22;5076362;28;20024;-81
2023/04/21 02:23:48;;;;;;;35.88;9.85;;;;;;;13.82;71.45;100170.19;5074543;28;20054;-84
2023/04/21 02:26:13;;;;;;;33.03;9.07;;;;;;;13.81;71.44;100152.25;5070533;28;20464;-82
2023/04/21 02:28:39;;;;;;;30.63;10.48;;;;;;;13.81;71.64;100166.63;5070576;28;20162;-84
2023/04/21 02:31:04;;;;;;;40.63;9.68;;;;;;;13.77;71.59;100169.78;5071271;28;20033;-84
2023/04/21 02:33:30;;;;;;;32.55;9.02;;;;;;;13.80;71.51;100164.06;5070574;28;20028;-83
2023/04/21 02:35:55;;;;;;;37.67;9.70;;;;;;;13.78;71.39;100166.94;5070227;28;20392;-82
2023/04/21 02:38:21;;;;;;;26.65;8.88;;;;;;;13.75;71.69;100171.81;5070975;28;21139;-82
2023/04/21 02:40:46;;;;;;;50.85;10.13;;;;;;;13.77;71.76;100162.53;5070744;28;20028;-82
2023/04/21 02:43:14;;;;;;;47.63;10.38;;;;;;;13.74;71.58;100157.44;5068431;28;20082;-83
2023/04/21 02:45:40;;;;;;;44.50;9.98;;;;;;;13.69;71.67;100148.13;5070096;28;20088;-82
2023/04/21 02:48:05;;;;;;;28.77;8.98;;;;;;;13.67;71.49;100148.25;5069994;28;20032;-81
2023/04/21 02:50:31;;;;;;;35.10;9.88;;;;;;;13.59;71.64;100154.47;5069785;28;20078;-80
2023/04/21 02:52:56;;;;;;;40.47;9.52;;;;;;;13.56;72.04;100154.78;5069841;28;20050;-80
2023/04/21 02:55:22;;;;;;;31.75;9.35;;;;;;;13.56;72.55;100153.91;5069603;28;20503;-81
2023/04/21 02:57:47;;;;;;;28.60;9.38;;;;;;;13.56;72.55;100143.97;5069226;28;20029;-82
2023/04/21 03:00:13;;;;;;;36.25;9.48;;;;;;;13.61;72.59;100157.00;5069339;28;20052;-83
2023/04/21 03:02:39;;;;;;;34.53;9.30;;;;;;;13.58;72.57;100158.16;5069702;28;20033;-82
2023/04/21 03:05:05;;;;;;;31.23;8.68;;;;;;;13.40;73.05;100148.34;5070175;28;20169;-82
2023/04/21 03:07:31;;;;;;;26.75;8.55;;;;;;;13.52;73.47;100163.31;5070366;28;20024;-82
2023/04/21 03:09:56;;;;;;;28.58;7.97;;;;;;;13.55;73.14;100155.75;5072343;28;20547;-83
2023/04/21 03:12:22;;;;;;;32.25;9.73;;;;;;;13.63;72.83;100161.25;5070794;28;20028;-83
2023/04/21 03:14:47;;;;;;;26.35;10.05;;;;;;;13.64;72.71;100146.72;5070727;28;20028;-82
2023/04/21 03:17:12;;;;;;;38.08;9.40;;;;;;;13.66;72.72;100160.09;5075926;28;20020;-80
2023/04/21 03:19:39;;;;;;;40.90;10.73;;;;;;;13.68;72.38;100160.78;5082746;28;20088;-84
2023/04/21 03:22:05;;;;;;;38.20;9.63;;;;;;;13.69;72.60;100158.94;5070264;28;20021;-83
2023/04/21 03:24:30;;;;;;;62.88;13.55;;;;;;;13.66;72.68;100160.09;5069598;28;20056;-84
2023/04/21 03:26:56;;;;;;;41.58;10.73;;;;;;;13.66;72.36;100165.50;5069606;28;20049;-83
2023/04/21 03:29:22;;;;;;;39.47;9.38;;;;;;;13.58;72.67;100166.25;5051783;28;20477;-83
2023/04/21 03:31:47;;;;;;;44.22;9.45;;;;;;;13.43;73.09;100159.69;5069350;28;20443;-84
2023/04/21 03:34:13;;;;;;;29.88;10.05;;;;;;;13.40;73.43;100165.41;5069161;28;20028;-83
2023/04/21 03:36:38;;;;;;;49.65;12.32;;;;;;;13.30;73.93;100169.22;5069306;28;20509;-83
2023/04/21 03:39:04;;;;;;;41.03;9.80;;;;;;;13.21;74.65;100164.72;5069442;28;20032;-83
2023/04/21 03:41:29;;;;;;;35.05;8.85;;;;;;;13.40;74.47;100173.53;5068989;28;20028;-82
2023/04/21 03:43:55;;;;;;;36.30;9.05;;;;;;;13.45;74.05;100157.72;5069601;28;20066;-82
2023/04/21 03:46:21;;;;;;;56.95;12.32;;;;;;;13.42;73.86;100162.56;5068453;28;20491;-83
2023/04/21 03:48:47;;;;;;;51.65;11.02;;;;;;;13.46;74.18;100155.84;5068457;28;20111;-82
2023/04/21 03:51:13;;;;;;;58.55;12.35;;;;;;;13.54;73.92;100155.94;5049290;28;20618;-82
2023/04/21 03:53:38;;;;;;;37.17;13.18;;;;;;;13.56;73.69;100159.31;5051180;28;20051;-84
2023/04/21 03:56:04;;;;;;;40.92;16.05;;;;;;;13.57;74.04;100171.84;5070104;28;20111;-83
2023/04/21 03:58:30;;;;;;;37.72;14.50;;;;;;;13.62;74.28;100174.91;5070884;28;20028;-81
2023/04/21 04:00:55;;;;;;;96.13;18.50;;;;;;;13.71;73.72;100171.28;5069395;28;20082;-81
2023/04/21 04:03:21;;;;;;;59.80;22.67;;;;;;;13.77;73.30;100173.34;5068100;28;20055;-82
2023/04/21 04:05:46;;;;;;;47.20;17.75;;;;;;;13.76;73.49;100182.44;5066323;28;20020;-84
2023/04/21 04:08:12;;;;;;;60.65;19.23;;;;;;;13.72;73.59;100182.94;5068668;28;20493;-83
2023/04/21 04:10:37;;;;;;;50.22;16.67;;;;;;;13.68;73.81;100185.09;5069558;28;20110;-82
2023/04/21 04:13:03;;;;;;;49.83;16.90;;;;;;;13.67;73.89;100188.78;5081402;28;20096;-81
2023/04/21 04:15:29;;;;;;;77.65;17.63;;;;;;;13.64;74.11;100195.38;5082720;28;20036;-83
2023/04/21 04:17:54;;;;;;;51.10;16.63;;;;;;;13.68;73.87;100201.31;5071558;28;20037;-80
2023/04/21 04:20:20;;;;;;;49.90;13.77;;;;;;;13.60;73.98;100199.41;5069221;28;20036;-80
2023/04/21 04:22:45;;;;;;;64.47;16.65;;;;;;;13.61;74.66;100203.78;5032648;28;20044;-82
2023/04/21 04:25:13;;;;;;;69.10;18.13;;;;;;;13.68;74.72;100206.72;5050758;28;20031;-82
2023/04/21 04:27:39;;;;;;;124.72;21.40;;;;;;;13.71;74.49;100195.59;5068517;28;20127;-81
2023/04/21 04:30:05;;;;;;;74.45;14.38;;;;;;;13.71;73.92;100210.97;5068934;28;20134;-81
2023/04/21 04:32:32;;;;;;;62.40;15.32;;;;;;;13.69;74.36;100197.63;5069114;28;20503;-84
2023/04/21 04:34:57;;;;;;;58.45;13.88;;;;;;;13.83;73.83;100213.28;5075379;28;20794;-80
2023/04/21 04:37:24;;;;;;;62.90;13.23;;;;;;;13.85;73.43;100211.25;5091340;28;20040;-89
2023/04/21 04:39:53;;;;;;;60.38;13.65;;;;;;;13.88;73.31;100212.81;5083423;28;20524;-91
2023/04/21 04:42:19;;;;;;;87.28;14.65;;;;;;;13.97;73.06;100217.28;5089095;28;20044;-83
2023/04/21 04:44:45;;;;;;;90.65;15.63;;;;;;;14.03;72.99;100206.69;5091090;28;20035;-83
2023/04/21 04:47:11;;;;;;;108.03;14.15;;;;;;;13.96;72.53;100185.84;5088046;28;20024;-85
2023/04/21 04:49:37;;;;;;;52.30;13.02;;;;;;;14.07;72.54;100212.63;5082175;28;20063;-85
2023/04/21 04:52:02;;;;;;;59.10;12.38;;;;;;;13.94;72.12;100202.19;5076800;28;20067;-84
2023/04/21 04:54:28;;;;;;;80.05;14.40;;;;;;;13.78;72.06;100168.78;5074907;28;20025;-87
2023/04/21 04:56:54;;;;;;;57.90;12.85;;;;;;;14.06;71.72;100203.69;5079723;28;20029;-87
2023/04/21 04:59:20;;;;;;;66.25;12.95;;;;;;;14.09;71.43;100189.00;5075044;28;20043;-83
2023/04/21 05:01:45;;;;;;;59.55;14.52;;;;;;;14.12;71.34;100194.94;5073975;28;20025;-87
2023/04/21 05:04:15;;;;;;;44.38;11.93;;;;;;;14.18;71.10;100199.72;5057309;28;20066;-91
2023/04/21 05:06:40;;;;;;;56.65;12.27;;;;;;;14.21;71.21;100195.84;5075361;28;20463;-86
2023/04/21 05:09:06;;;;;;;63.72;12.70;;;;;;;14.19;70.67;100195.97;5089677;28;20021;-82
2023/04/21 05:11:31;;;;;;;67.85;12.88;;;;;;;14.29;70.31;100205.84;5086344;28;20029;-83
2023/04/21 05:13:57;;;;;;;53.30;12.00;;;;;;;14.27;70.14;100202.47;5072889;28;20097;-89
2023/04/21 05:16:22;;;;;;;45.80;12.02;;;;;;;14.34;69.77;100198.97;5072212;28;20112;-85
2023/04/21 05:18:52;;;;;;;73.78;12.10;;;;;;;14.29;69.73;100200.44;5071228;28;20025;-86
2023/04/21 05:21:28;;;;;;;60.55;13.15;;;;;;;14.35;69.84;100200.69;5070782;28;20028;-85
2023/04/21 05:23:57;;;;;;;52.22;12.82;;;;;;;14.27;69.51;100194.34;5065969;28;20039;-83
2023/04/21 05:26:27;;;;;;;57.50;15.65;;;;;;;14.41;69.55;100205.47;5070912;28;20029;-83
2023/04/21 05:28:54;;;;;;;46.30;14.07;;;;;;;14.46;69.33;100211.22;5067080;28;20025;-82
2023/04/21 05:31:20;;;;;;;114.28;18.45;;;;;;;14.45;69.48;100214.09;5066229;28;20067;-85
2023/04/21 05:33:45;;;;;;;76.45;14.68;;;;;;;14.53;69.37;100211.44;5056773;28;20063;-84
2023/04/21 05:36:11;;;;;;;104.28;17.17;;;;;;;14.56;69.24;100213.81;5073166;28;20032;-89
2023/04/21 05:38:36;;;;;;;74.05;17.88;;;;;;;14.47;69.55;100222.91;5056242;28;20036;-85
2023/04/21 05:41:03;;;;;;;53.05;15.80;;;;;;;14.54;69.09;100211.28;5073492;28;20028;-79
2023/04/21 05:43:28;;;;;;;50.65;16.23;;;;;;;14.59;69.30;100210.78;5063366;28;20040;-82
2023/04/21 05:45:54;;;;;;;92.38;18.33;;;;;;;14.60;68.96;100197.13;5043760;28;20032;-81
2023/04/21 05:48:19;;;;;;;63.80;15.60;;;;;;;14.71;68.92;100202.25;5090048;28;20020;-80
2023/04/21 05:50:45;;;;;;;91.43;16.60;;;;;;;14.71;69.03;100193.28;5088137;28;20029;-84
2023/04/21 05:53:10;;;;;;;130.95;21.08;;;;;;;14.87;68.65;100196.06;5082169;28;20028;-83
2023/04/21 05:55:36;;;;;;;96.70;15.65;;;;;;;14.90;68.10;100195.72;5077801;28;20499;-82
2023/04/21 05:58:03;;;;;;;87.40;17.80;;;;;;;15.06;67.83;100201.22;5080203;28;20503;-82
2023/04/21 06:00:28;;;;;;;75.72;17.90;;;;;;;15.26;66.94;100210.75;5064063;28;20131;-81
2023/04/21 06:02:54;;;;;;;56.72;13.95;;;;;;;15.27;66.46;100217.88;5064875;28;20464;-83
2023/04/21 06:05:19;;;;;;;73.28;16.98;;;;;;;15.35;65.92;100213.50;5077598;28;20036;-81
2023/04/21 06:07:45;;;;;;;79.20;16.15;;;;;;;15.38;65.63;100216.72;5065960;28;20029;-83
2023/04/21 06:10:13;;;;;;;66.25;14.75;;;;;;;15.41;65.55;100202.81;5055344;28;20039;-81
2023/04/21 06:12:38;;;;;;;72.78;15.05;;;;;;;15.47;64.66;100220.31;5074784;28;20055;-80
2023/04/21 06:15:05;;;;;;;68.20;15.68;;;;;;;15.32;64.45;100211.94;5071819;28;20480;-82
2023/04/21 06:17:30;;;;;;;92.93;15.65;;;;;;;15.25;64.85;100211.78;5034522;28;20047;-81
2023/04/21 06:19:56;;;;;;;96.63;25.35;;;;;;;15.21;65.37;100226.66;5071752;28;20032;-85
2023/04/21 06:22:22;;;;;;;68.95;10.07;;;;;;;14.92;65.29;100233.50;5070233;28;20028;-84
2023/04/21 06:24:47;;;;;;;40.50;6.60;;;;;;;14.59;65.54;100227.88;5052162;28;20347;-85
2023/04/21 06:27:13;;;;;;;25.55;4.57;;;;;;;14.07;66.76;100229.69;5051824;28;20029;-85
2023/04/21 06:29:39;;;;;;;21.58;4.07;;;;;;;14.00;67.09;100242.16;5052456;28;20412;-85
2023/04/21 06:32:05;;;;;;;16.92;3.50;;;;;;;13.90;67.51;100254.91;5050676;28;20061;-85
2023/04/21 06:34:30;;;;;;;9.75;3.45;;;;;;;13.75;67.96;100253.75;5052119;28;20035;-84
2023/04/21 06:36:56;;;;;;;23.60;7.53;;;;;;;13.58;68.81;100258.13;5051765;28;20475;-84
2023/04/21 06:39:21;;;;;;;29.67;6.57;;;;;;;13.54;68.03;100264.84;5052524;28;20017;-84
2023/04/21 06:41:46;;;;;;;25.83;5.35;;;;;;;13.47;68.20;100269.16;5054427;28;20040;-84
2023/04/21 06:44:13;;;;;;;21.33;6.80;;;;;;;13.32;67.40;100272.53;5076361;28;20033;-83
2023/04/21 06:46:41;;;;;;;31.55;4.07;;;;;;;13.35;67.30;100266.81;5070989;28;20518;-84
2023/04/21 06:49:07;;;;;;;11.15;2.60;;;;;;;13.25;66.81;100274.97;5072395;28;20028;-83
2023/04/21 06:51:33;;;;;;;19.73;3.38;;;;;;;13.23;66.58;100278.84;5055714;28;20029;-84
2023/04/21 06:53:59;;;;;;;25.25;4.03;;;;;;;13.16;67.31;100281.28;5053094;28;20523;-85
2023/04/21 06:56:29;;;;;;;11.85;3.85;;;;;;;12.99;67.23;100274.81;5051892;28;20033;-84
2023/04/21 06:58:55;;;;;;;15.57;3.65;;;;;;;12.96;67.05;100285.03;5052729;28;20040;-83
2023/04/21 07:01:23;;;;;;;13.52;3.22;;;;;;;12.90;67.52;100286.47;5070388;28;20083;-84
2023/04/21 07:03:51;;;;;;;14.38;2.72;;;;;;;12.93;67.39;100291.59;5068814;28;20098;-81
2023/04/21 07:06:17;;;;;;;42.90;5.60;;;;;;;12.83;67.59;100266.47;5057845;28;20063;-84
2023/04/21 07:08:42;;;;;;;19.67;4.22;;;;;;;12.95;67.41;100273.38;5072368;28;20048;-85
2023/04/21 07:11:08;;;;;;;12.52;3.15;;;;;;;12.86;67.60;100266.19;5059652;28;20037;-84
2023/04/21 07:13:33;;;;;;;15.95;3.20;;;;;;;12.95;67.28;100281.50;5052322;28;20032;-83
2023/04/21 07:15:59;;;;;;;12.15;4.28;;;;;;;12.91;66.74;100271.13;5051743;28;20117;-83
2023/04/21 07:18:24;;;;;;;29.25;4.97;;;;;;;13.03;66.62;100280.72;5035174;28;20075;-86
2023/04/21 07:20:50;;;;;;;25.90;4.63;;;;;;;13.02;66.88;100263.72;5071105;28;20116;-84
2023/04/21 07:23:15;;;;;;;51.80;10.60;;;;;;;13.12;66.29;100270.94;5069843;28;20458;-85
2023/04/21 07:25:41;;;;;;;22.02;5.55;;;;;;;13.16;65.93;100264.22;5068960;28;20040;-84
2023/04/21 07:28:07;;;;;;;32.47;4.47;;;;;;;13.19;65.40;100263.91;5070776;28;20067;-85
2023/04/21 07:30:32;;;;;;;28.58;4.38;;;;;;;13.20;65.35;100257.53;5069972;28;20031;-84
2023/04/21 07:32:57;;;;;;;19.38;4.00;;;;;;;13.22;65.28;100258.22;5070859;28;20399;-85
2023/04/21 07:35:23;;;;;;;26.33;4.60;;;;;;;13.25;65.36;100252.50;5071784;28;20044;-85
2023/04/21 07:37:49;;;;;;;24.48;3.65;;;;;;;13.21;65.26;100248.44;5073525;28;20036;-82
2023/04/21 07:40:14;;;;;;;29.77;5.68;;;;;;;13.23;65.32;100255.38;5072641;28;20063;-84
2023/04/21 07:42:40;;;;;;;18.80;4.43;;;;;;;13.23;65.46;100255.38;5071352;28;20028;-84
2023/04/21 07:45:06;;;;;;;15.02;4.75;;;;;;;13.30;65.58;100256.44;5051875;28;20029;-85
2023/04/21 07:47:32;;;;;;;15.15;3.92;;;;;;;13.31;65.06;100246.50;5050411;28;20067;-84
2023/04/21 07:49:57;;;;;;;15.98;4.63;;;;;;;13.40;63.79;100241.06;5044050;28;20060;-84
2023/04/21 07:52:23;;;;;;;26.88;5.47;;;;;;;13.48;63.53;100251.09;5053591;28;20056;-84
2023/04/21 07:54:49;;;;;;;18.23;4.18;;;;;;;13.59;63.43;100256.28;5051897;28;20495;-84
2023/04/21 07:57:15;;;;;;;28.42;4.30;;;;;;;13.74;62.90;100257.44;5065365;28;20040;-85
2023/04/21 07:59:40;;;;;;;144.23;12.35;;;;;;;13.95;62.63;100257.97;5068194;28;20132;-83
2023/04/21 08:02:07;;;;;;;39.78;5.20;;;;;;;14.12;61.81;100258.97;5055099;28;20037;-84
2023/04/21 08:04:32;;;;;;;29.80;4.13;;;;;;;14.36;60.41;100255.66;5050364;28;20420;-83
2023/04/21 08:06:58;;;;;;;20.65;4.57;;;;;;;14.45;59.19;100250.13;5050117;28;20029;-83
2023/04/21 08:09:23;;;;;;;35.30;5.25;;;;;;;14.69;59.25;100250.28;5050265;28;20071;-85
2023/04/21 08:11:48;;;;;;;35.42;6.38;;;;;;;14.90;57.89;100268.00;5053227;28;20037;-86
2023/04/21 08:14:14;;;;;;;31.00;7.45;;;;;;;15.14;56.98;100271.66;5047198;28;20050;-85
2023/04/21 08:16:41;;;;;;;20.42;5.20;;;;;;;15.20;56.37;100279.16;5069458;28;20089;-86
2023/04/21 08:19:07;;;;;;;76.38;9.50;;;;;;;15.33;56.18;100280.53;5069711;28;20042;-84
2023/04/21 08:21:33;;;;;;;33.03;7.10;;;;;;;15.36;56.62;100282.94;5069392;28;20020;-84
2023/04/21 08:23:59;;;;;;;32.25;5.68;;;;;;;15.33;54.14;100280.53;5069580;28;20498;-85
2023/04/21 08:26:25;;;;;;;74.75;8.32;;;;;;;15.31;54.96;100279.88;5069592;28;20569;-85
2023/04/21 08:28:51;;;;;;;30.00;6.65;;;;;;;15.31;55.90;100275.31;5069491;28;20037;-84
2023/04/21 08:31:18;;;;;;;33.03;6.25;;;;;;;15.11;56.96;100279.25;5069895;28;20027;-86
2023/04/21 08:33:43;;;;;;;30.33;5.75;;;;;;;15.23;57.04;100281.53;5069905;28;20029;-84
2023/04/21 08:36:10;;;;;;;24.48;5.93;;;;;;;15.05;57.67;100269.94;5051173;28;20033;-85
2023/04/21 08:38:39;;;;;;;30.92;7.32;;;;;;;15.25;57.59;100275.97;5070019;28;20029;-85
2023/04/21 08:41:05;;;;;;;37.42;6.63;;;;;;;15.17;56.86;100263.22;5070125;28;20029;-85
2023/04/21 08:43:30;;;;;;;34.47;6.75;;;;;;;15.32;56.79;100265.31;5065512;28;20059;-84
2023/04/21 08:45:56;;;;;;;20.67;4.82;;;;;;;15.31;56.47;100275.31;5049864;28;20033;-84
2023/04/21 08:48:23;;;;;;;26.83;6.68;;;;;;;15.45;56.58;100268.38;5050120;28;20704;-83
2023/04/21 08:50:50;;;;;;;48.33;5.80;;;;;;;15.51;55.82;100260.47;5050013;28;20029;-85
2023/04/21 08:53:16;;;;;;;32.03;8.00;;;;;;;15.57;55.12;100262.53;5067839;28;20120;-84
2023/04/21 08:55:43;;;;;;;59.72;10.90;;;;;;;15.73;55.50;100269.84;5049942;28;20143;-83
2023/04/21 08:58:08;;;;;;;56.50;10.60;;;;;;;15.81;54.60;100260.91;5051544;28;20109;-85
2023/04/21 09:00:35;;;;;;;45.65;7.68;;;;;;;16.02;53.30;100269.41;5068704;28;20075;-85
2023/04/21 09:03:01;;;;;;;30.90;6.47;;;;;;;16.01;52.01;100263.13;5070409;28;20032;-84
2023/04/21 09:05:32;;;;;;;67.22;9.65;;;;;;;15.85;52.09;100265.81;5069906;28;20036;-84
2023/04/21 09:08:15;;;;;;;51.40;8.23;;;;;;;15.97;52.37;100266.31;5071051;28;20024;-84
2023/04/21 09:10:47;;;;;;;61.67;8.15;;;;;;;16.03;52.10;100261.09;5053220;28;20032;-84
2023/04/21 09:13:14;;;;;;;47.45;6.80;;;;;;;16.21;51.95;100256.34;5065475;28;20021;-84
2023/04/21 09:15:53;;;;;;;46.55;6.95;;;;;;;16.26;50.89;100259.41;5054518;28;20496;-84
2023/04/21 09:18:33;;;;;;;29.80;6.55;;;;;;;16.29;51.15;100258.22;5050423;28;20029;-84
2023/04/21 09:21:07;;;;;;;35.70;7.70;;;;;;;16.44;51.03;100258.38;5053762;28;20499;-84
2023/04/21 09:23:47;;;;;;;43.53;7.15;;;;;;;16.45;50.69;100244.59;5057526;28;20028;-85
2023/04/21 09:26:14;;;;;;;25.15;6.70;;;;;;;16.64;51.13;100260.56;5056315;28;20082;-81
2023/04/21 09:28:48;;;;;;;36.55;6.88;;;;;;;16.74;50.70;100244.09;5074444;28;20036;-81
2023/04/21 09:31:19;;;;;;;44.90;7.22;;;;;;;16.78;51.31;100248.16;5071372;28;20032;-83
2023/04/21 09:34:17;;;;;;;36.40;6.88;;;;;;;16.97;50.57;100247.72;5068890;28;20032;-84
2023/04/21 09:36:44;;;;;;;25.98;6.35;;;;;;;16.82;48.69;100230.47;5070678;28;20035;-84
2023/04/21 09:39:09;;;;;;;39.80;7.30;;;;;;;17.00;49.67;100250.09;5067394;28;20093;-83
2023/04/21 09:41:35;;;;;;;29.75;5.57;;;;;;;16.91;50.23;100245.72;5068358;28;20024;-81
2023/04/21 09:44:00;;;;;;;33.78;6.78;;;;;;;17.10;50.07;100250.75;5068132;28;20039;-82
2023/04/21 09:46:28;;;;;;;31.25;5.55;;;;;;;17.13;47.85;100244.97;5067664;28;20106;-83
2023/04/21 09:48:54;;;;;;;31.38;5.10;;;;;;;17.17;46.66;100235.44;5077793;28;20130;-82
2023/04/21 09:51:23;;;;;;;38.90;6.05;;;;;;;17.16;46.40;100231.03;5060299;28;20407;-82
2023/04/21 09:53:52;;;;;;;30.52;5.22;;;;;;;17.24;46.40;100239.16;5069180;28;20028;-81
2023/04/21 09:56:21;;;;;;;21.33;4.97;;;;;;;17.23;46.01;100237.47;5067539;28;20028;-82
2023/04/21 09:58:50;;;;;;;30.08;6.32;;;;;;;17.18;46.65;100236.31;5067040;28;20785;-82
2023/04/21 10:01:16;;;;;;;28.75;4.55;;;;;;;17.25;46.31;100235.41;5067504;28;20048;-82
2023/04/21 10:03:44;;;;;;;33.92;5.65;;;;;;;17.19;45.71;100230.66;5049242;28;20597;-81
2023/04/21 10:06:10;;;;;;;34.42;5.57;;;;;;;17.06;45.70;100224.13;5068742;28;20514;-81
2023/04/21 10:08:36;;;;;;;44.70;6.53;;;;;;;17.06;46.19;100224.97;5072025;28;20028;-82
2023/04/21 10:11:03;;;;;;;38.65;6.25;;;;;;;17.11;46.28;100240.72;5072025;28;20040;-80
2023/04/21 10:13:29;;;;;;;17.25;3.85;;;;;;;17.03;45.95;100244.31;5072003;28;20052;-81
2023/04/21 10:16:06;;;;;;;31.20;6.75;;;;;;;16.94;46.20;100245.38;5073477;28;20511;-80
2023/04/21 10:18:37;;;;;;;24.05;4.40;;;;;;;16.74;46.37;100244.09;5079892;28;20020;-80
2023/04/21 10:21:08;;;;;;;35.00;5.80;;;;;;;16.70;46.87;100237.28;5080077;28;20058;-80
2023/04/21 10:23:44;;;;;;;32.20;5.22;;;;;;;16.69;47.27;100235.63;5075100;28;20074;-82
2023/04/21 10:26:18;;;;;;;30.35;4.45;;;;;;;16.77;47.44;100231.00;5070764;28;20041;-81
2023/04/21 10:28:59;;;;;;;37.65;7.00;;;;;;;16.75;47.76;100219.47;5052868;28;20085;-82
2023/04/21 10:31:35;;;;;;;42.05;5.65;;;;;;;16.98;47.11;100229.56;5070564;28;20044;-81
2023/04/21 10:34:06;;;;;;;24.92;6.03;;;;;;;17.17;46.26;100230.00;5070356;28;20504;-83
2023/04/21 10:36:33;;;;;;;27.10;5.43;;;;;;;17.22;45.88;100229.47;5077241;28;20113;-81
2023/04/21 10:39:03;;;;;;;27.48;4.75;;;;;;;17.32;45.69;100228.25;5053282;28;20035;-83
2023/04/21 10:41:30;;;;;;;39.92;6.90;;;;;;;17.43;45.78;100210.66;5071885;28;20032;-81
2023/04/21 10:44:14;;;;;;;28.70;6.18;;;;;;;17.65;45.33;100211.75;5075269;28;20408;-82
2023/04/21 10:46:44;;;;;;;171.80;22.00;;;;;;;17.96;45.18;100220.72;5080849;28;20048;-80
2023/04/21 10:49:29;;;;;;;31.83;6.55;;;;;;;18.24;44.69;100213.66;5075268;28;20107;-84
2023/04/21 10:54:29;;;;;;;31.67;5.35;;;;;;;18.35;43.26;100229.53;5080863;28;20049;-83
2023/04/21 10:56:56;;;;;;;34.95;5.78;;;;;;;18.30;43.79;100225.69;5069135;28;20462;-81
2023/04/21 10:59:23;;;;;;;35.22;6.50;;;;;;;18.31;43.48;100228.25;5069647;28;20083;-81
2023/04/21 11:01:48;;;;;;;31.98;5.22;;;;;;;18.30;42.83;100234.72;5069856;28;20032;-81
2023/04/21 11:04:15;;;;;;;24.30;4.60;;;;;;;18.12;42.84;100228.75;5050164;28;20037;-81
2023/04/21 11:06:40;;;;;;;30.85;4.75;;;;;;;17.89;43.32;100225.19;5069378;28;20491;-81
2023/04/21 11:09:06;;;;;;;29.77;5.63;;;;;;;17.79;43.95;100230.03;5069659;28;20103;-80
2023/04/21 11:11:31;;;;;;;28.80;4.95;;;;;;;17.65;44.67;100230.78;5069849;28;20661;-82
2023/04/21 11:14:00;;;;;;;26.92;4.57;;;;;;;17.59;44.87;100240.50;5070063;28;20037;-80
2023/04/21 11:16:26;;;;;;;31.08;6.63;;;;;;;17.53;45.51;100224.88;5051805;28;20506;-83